sensor_id;sensor_type;location;lat;lon;timestamp;temperature;humidity
8979;DHT22;4524;51.364;5.448;2023-07-16T00:01:48;18.10;99.90
8979;DHT22;4524;51.364;5.448;2023-07-16T00:04:17;18.10;99.90
8979;DHT22;4524;51.364;5.448;2023-07-16T00:06:46;18.00;99.90
8979;DHT22;4524;51.364;5.448;2023-07-16T00:09:14;18.00;99.90
8979;DHT22;4524;51.364;5.448;2023-07-16T00:11:42;18.00;99.90
8979;DHT22;4524;51.364;5.448;2023-07-16T00:14:11;18.00;99.90
8979;DHT22;4524;51.364;5.448;2023-07-16T00:16:39;18.00;99.90
8979;DHT22;4524;51.364;5.448;2023-07-16T00:19:10;18.00;99.90
8979;DHT22;4524;51.364;5.448;2023-07-16T00:21:38;17.90;99.90
8979;DHT22;4524;51.364;5.448;2023-07-16T00:24:06;17.90;99.90
8979;DHT22;4524;51.364;5.448;2023-07-16T00:26:34;17.90;99.90
8979;DHT22;4524;51.364;5.448;2023-07-16T00:29:02;17.90;99.90
8979;DHT22;4524;51.364;5.448;2023-07-16T00:31:32;17.80;99.90
8979;DHT22;4524;51.364;5.448;2023-07-16T00:34:00;17.80;99.90
8979;DHT22;4524;51.364;5.448;2023-07-16T00:36:29;17.80;99.90
8979;DHT22;4524;51.364;5.448;2023-07-16T00:38:57;17.80;99.90
8979;DHT22;4524;51.364;5.448;2023-07-16T00:41:25;17.80;99.90
8979;DHT22;4524;51.364;5.448;2023-07-16T00:43:53;17.80;99.90
8979;DHT22;4524;51.364;5.448;2023-07-16T00:46:21;17.90;99.90
8979;DHT22;4524;51.364;5.448;2023-07-16T00:48:51;17.90;99.90
8979;DHT22;4524;51.364;5.448;2023-07-16T00:51:22;17.90;99.90
8979;DHT22;4524;51.364;5.448;2023-07-16T00:53:52;17.90;99.90
8979;DHT22;4524;51.364;5.448;2023-07-16T00:56:21;17.90;99.90
8979;DHT22;4524;51.364;5.448;2023-07-16T00:58:50;18.00;99.90
8979;DHT22;4524;51.364;5.448;2023-07-16T01:01:20;17.90;99.90
8979;DHT22;4524;51.364;5.448;2023-07-16T01:03:48;18.00;99.90
8979;DHT22;4524;51.364;5.448;2023-07-16T01:06:24;18.00;99.90
8979;DHT22;4524;51.364;5.448;2023-07-16T01:08:58;18.00;99.90
8979;DHT22;4524;51.364;5.448;2023-07-16T01:11:29;18.00;99.90
8979;DHT22;4524;51.364;5.448;2023-07-16T01:13:58;18.00;99.90
8979;DHT22;4524;51.364;5.448;2023-07-16T01:16:27;18.00;99.90
8979;DHT22;4524;51.364;5.448;2023-07-16T01:19:15;17.90;99.90
8979;DHT22;4524;51.364;5.448;2023-07-16T01:21:51;17.80;99.90
8979;DHT22;4524;51.364;5.448;2023-07-16T01:24:50;17.80;99.90
8979;DHT22;4524;51.364;5.448;2023-07-16T01:27:47;17.70;99.90
8979;DHT22;4524;51.364;5.448;2023-07-16T01:30:20;17.60;99.90
8979;DHT22;4524;51.364;5.448;2023-07-16T01:32:50;17.60;99.90
8979;DHT22;4524;51.364;5.448;2023-07-16T01:35:20;17.50;99.90
8979;DHT22;4524;51.364;5.448;2023-07-16T01:37:48;17.40;99.90
8979;DHT22;4524;51.364;5.448;2023-07-16T01:40:17;17.40;99.90
8979;DHT22;4524;51.364;5.448;2023-07-16T01:42:45;17.40;99.90
8979;DHT22;4524;51.364;5.448;2023-07-16T01:45:13;17.40;99.90
8979;DHT22;4524;51.364;5.448;2023-07-16T01:47:50;17.40;99.90
8979;DHT22;4524;51.364;5.448;2023-07-16T01:50:23;17.30;99.90
8979;DHT22;4524;51.364;5.448;2023-07-16T01:52:51;17.30;99.90
8979;DHT22;4524;51.364;5.448;2023-07-16T01:55:19;17.30;99.90
8979;DHT22;4524;51.364;5.448;2023-07-16T01:57:47;17.30;99.90
8979;DHT22;4524;51.364;5.448;2023-07-16T02:00:15;17.20;99.90
8979;DHT22;4524;51.364;5.448;2023-07-16T02:02:47;17.20;99.90
8979;DHT22;4524;51.364;5.448;2023-07-16T02:05:16;17.20;99.90
8979;DHT22;4524;51.364;5.448;2023-07-16T02:07:44;17.20;99.90
8979;DHT22;4524;51.364;5.448;2023-07-16T02:10:12;17.20;99.90
8979;DHT22;4524;51.364;5.448;2023-07-16T02:12:41;17.20;99.90
8979;DHT22;4524;51.364;5.448;2023-07-16T02:15:10;17.10;99.90
8979;DHT22;4524;51.364;5.448;2023-07-16T02:17:38;17.10;99.90
8979;DHT22;4524;51.364;5.448;2023-07-16T02:20:10;17.10;99.90
8979;DHT22;4524;51.364;5.448;2023-07-16T02:22:39;17.10;99.90
8979;DHT22;4524;51.364;5.448;2023-07-16T02:25:07;17.00;99.90
8979;DHT22;4524;51.364;5.448;2023-07-16T02:27:35;17.00;99.90
8979;DHT22;4524;51.364;5.448;2023-07-16T02:30:05;16.90;99.90
8979;DHT22;4524;51.364;5.448;2023-07-16T02:32:33;17.00;99.90
8979;DHT22;4524;51.364;5.448;2023-07-16T02:35:02;16.90;99.90
8979;DHT22;4524;51.364;5.448;2023-07-16T02:37:31;16.90;99.90
8979;DHT22;4524;51.364;5.448;2023-07-16T02:39:59;16.80;99.90
8979;DHT22;4524;51.364;5.448;2023-07-16T02:42:27;16.80;99.90
8979;DHT22;4524;51.364;5.448;2023-07-16T02:44:55;16.80;99.90
8979;DHT22;4524;51.364;5.448;2023-07-16T02:47:24;16.80;99.90
8979;DHT22;4524;51.364;5.448;2023-07-16T02:49:52;16.70;99.90
8979;DHT22;4524;51.364;5.448;2023-07-16T02:52:20;16.70;99.90
8979;DHT22;4524;51.364;5.448;2023-07-16T02:54:50;16.70;99.90
8979;DHT22;4524;51.364;5.448;2023-07-16T02:57:18;16.70;99.90
8979;DHT22;4524;51.364;5.448;2023-07-16T02:59:46;16.70;99.90
8979;DHT22;4524;51.364;5.448;2023-07-16T03:02:33;16.60;99.90
8979;DHT22;4524;51.364;5.448;2023-07-16T03:05:01;16.60;99.90
8979;DHT22;4524;51.364;5.448;2023-07-16T03:07:29;16.60;99.90
8979;DHT22;4524;51.364;5.448;2023-07-16T03:10:19;16.50;99.90
8979;DHT22;4524;51.364;5.448;2023-07-16T03:12:47;16.40;99.90
8979;DHT22;4524;51.364;5.448;2023-07-16T03:15:16;16.50;99.90
8979;DHT22;4524;51.364;5.448;2023-07-16T03:17:44;16.40;99.90
8979;DHT22;4524;51.364;5.448;2023-07-16T03:20:12;16.40;99.90
8979;DHT22;4524;51.364;5.448;2023-07-16T03:22:40;16.30;99.90
8979;DHT22;4524;51.364;5.448;2023-07-16T03:25:09;16.30;99.90
8979;DHT22;4524;51.364;5.448;2023-07-16T03:27:38;16.20;99.90
8979;DHT22;4524;51.364;5.448;2023-07-16T03:30:07;16.20;99.90
8979;DHT22;4524;51.364;5.448;2023-07-16T03:32:36;16.10;99.90
8979;DHT22;4524;51.364;5.448;2023-07-16T03:35:18;16.10;99.90
8979;DHT22;4524;51.364;5.448;2023-07-16T03:37:50;16.10;99.90
8979;DHT22;4524;51.364;5.448;2023-07-16T03:40:25;16.10;99.90
8979;DHT22;4524;51.364;5.448;2023-07-16T03:42:54;16.00;99.90
8979;DHT22;4524;51.364;5.448;2023-07-16T03:45:23;16.00;99.90
8979;DHT22;4524;51.364;5.448;2023-07-16T03:47:52;16.90;99.90
8979;DHT22;4524;51.364;5.448;2023-07-16T03:50:20;17.70;99.90
8979;DHT22;4524;51.364;5.448;2023-07-16T03:52:48;18.00;99.90
8979;DHT22;4524;51.364;5.448;2023-07-16T03:55:16;18.10;99.90
8979;DHT22;4524;51.364;5.448;2023-07-16T03:57:44;18.10;99.90
8979;DHT22;4524;51.364;5.448;2023-07-16T04:00:14;18.20;99.90
8979;DHT22;4524;51.364;5.448;2023-07-16T04:02:47;18.30;99.90
8979;DHT22;4524;51.364;5.448;2023-07-16T04:05:17;18.30;99.90
8979;DHT22;4524;51.364;5.448;2023-07-16T04:07:49;18.30;99.90
8979;DHT22;4524;51.364;5.448;2023-07-16T04:10:18;18.30;99.90
8979;DHT22;4524;51.364;5.448;2023-07-16T04:13:06;18.50;99.90
8979;DHT22;4524;51.364;5.448;2023-07-16T04:15:36;18.50;99.90
8979;DHT22;4524;51.364;5.448;2023-07-16T04:18:04;18.50;99.90
8979;DHT22;4524;51.364;5.448;2023-07-16T04:20:32;18.50;99.90
8979;DHT22;4524;51.364;5.448;2023-07-16T04:23:01;18.50;99.90
8979;DHT22;4524;51.364;5.448;2023-07-16T04:25:29;18.50;99.90
8979;DHT22;4524;51.364;5.448;2023-07-16T04:27:57;18.70;99.90
8979;DHT22;4524;51.364;5.448;2023-07-16T04:30:25;19.00;99.90
8979;DHT22;4524;51.364;5.448;2023-07-16T04:32:55;19.10;99.90
8979;DHT22;4524;51.364;5.448;2023-07-16T04:35:23;19.00;99.90
8979;DHT22;4524;51.364;5.448;2023-07-16T04:37:51;19.00;99.90
8979;DHT22;4524;51.364;5.448;2023-07-16T04:40:19;18.90;99.90
8979;DHT22;4524;51.364;5.448;2023-07-16T04:42:47;18.70;99.90
8979;DHT22;4524;51.364;5.448;2023-07-16T04:45:15;18.80;99.90
8979;DHT22;4524;51.364;5.448;2023-07-16T04:47:43;18.80;99.90
8979;DHT22;4524;51.364;5.448;2023-07-16T04:50:32;18.80;99.90
8979;DHT22;4524;51.364;5.448;2023-07-16T04:53:00;18.90;99.90
8979;DHT22;4524;51.364;5.448;2023-07-16T04:55:28;18.90;99.90
8979;DHT22;4524;51.364;5.448;2023-07-16T04:57:56;18.80;99.90
8979;DHT22;4524;51.364;5.448;2023-07-16T05:00:24;18.80;99.90
8979;DHT22;4524;51.364;5.448;2023-07-16T05:02:52;19.00;99.90
8979;DHT22;4524;51.364;5.448;2023-07-16T05:05:20;18.90;99.90
8979;DHT22;4524;51.364;5.448;2023-07-16T05:07:49;19.00;99.90
8979;DHT22;4524;51.364;5.448;2023-07-16T05:10:17;18.90;99.90
8979;DHT22;4524;51.364;5.448;2023-07-16T05:12:46;18.80;99.90
8979;DHT22;4524;51.364;5.448;2023-07-16T05:15:14;18.80;99.90
8979;DHT22;4524;51.364;5.448;2023-07-16T05:17:42;18.80;99.90
8979;DHT22;4524;51.364;5.448;2023-07-16T05:20:10;18.70;99.90
8979;DHT22;4524;51.364;5.448;2023-07-16T05:22:39;18.80;99.90
8979;DHT22;4524;51.364;5.448;2023-07-16T05:25:08;19.10;99.90
8979;DHT22;4524;51.364;5.448;2023-07-16T05:27:37;19.20;99.70
8979;DHT22;4524;51.364;5.448;2023-07-16T05:30:06;18.90;99.40
8979;DHT22;4524;51.364;5.448;2023-07-16T05:32:35;18.90;99.70
8979;DHT22;4524;51.364;5.448;2023-07-16T05:35:04;18.90;99.60
8979;DHT22;4524;51.364;5.448;2023-07-16T05:37:32;18.90;99.60
8979;DHT22;4524;51.364;5.448;2023-07-16T05:40:00;18.80;99.70
8979;DHT22;4524;51.364;5.448;2023-07-16T05:42:31;18.90;99.60
8979;DHT22;4524;51.364;5.448;2023-07-16T05:45:00;19.00;99.50
8979;DHT22;4524;51.364;5.448;2023-07-16T05:47:28;19.00;99.30
8979;DHT22;4524;51.364;5.448;2023-07-16T05:49:56;19.00;99.10
8979;DHT22;4524;51.364;5.448;2023-07-16T05:52:24;18.90;99.20
8979;DHT22;4524;51.364;5.448;2023-07-16T05:54:52;19.00;99.20
8979;DHT22;4524;51.364;5.448;2023-07-16T05:57:20;19.10;99.10
8979;DHT22;4524;51.364;5.448;2023-07-16T05:59:50;19.00;99.10
8979;DHT22;4524;51.364;5.448;2023-07-16T06:02:22;19.00;99.10
8979;DHT22;4524;51.364;5.448;2023-07-16T06:04:50;19.00;99.10
8979;DHT22;4524;51.364;5.448;2023-07-16T06:07:18;19.00;99.00
8979;DHT22;4524;51.364;5.448;2023-07-16T06:09:47;19.00;99.00
8979;DHT22;4524;51.364;5.448;2023-07-16T06:12:15;19.00;98.70
8979;DHT22;4524;51.364;5.448;2023-07-16T06:14:43;18.90;98.90
8979;DHT22;4524;51.364;5.448;2023-07-16T06:17:12;18.90;99.00
8979;DHT22;4524;51.364;5.448;2023-07-16T06:19:40;19.00;99.90
8979;DHT22;4524;51.364;5.448;2023-07-16T06:22:09;19.00;98.80
8979;DHT22;4524;51.364;5.448;2023-07-16T06:24:37;18.90;98.70
8979;DHT22;4524;51.364;5.448;2023-07-16T06:27:05;18.90;98.90
8979;DHT22;4524;51.364;5.448;2023-07-16T06:29:33;18.90;98.80
8979;DHT22;4524;51.364;5.448;2023-07-16T06:32:01;19.00;98.80
8979;DHT22;4524;51.364;5.448;2023-07-16T06:34:31;19.00;98.70
8979;DHT22;4524;51.364;5.448;2023-07-16T06:36:59;19.10;98.60
8979;DHT22;4524;51.364;5.448;2023-07-16T06:39:27;19.00;98.50
8979;DHT22;4524;51.364;5.448;2023-07-16T06:41:55;19.20;98.30
8979;DHT22;4524;51.364;5.448;2023-07-16T06:44:26;19.10;98.50
8979;DHT22;4524;51.364;5.448;2023-07-16T06:46:54;19.20;98.30
8979;DHT22;4524;51.364;5.448;2023-07-16T06:49:23;19.20;98.50
8979;DHT22;4524;51.364;5.448;2023-07-16T06:51:52;19.10;98.20
8979;DHT22;4524;51.364;5.448;2023-07-16T06:54:20;19.10;98.00
8979;DHT22;4524;51.364;5.448;2023-07-16T06:57:07;19.00;98.10
8979;DHT22;4524;51.364;5.448;2023-07-16T06:59:35;19.10;97.90
8979;DHT22;4524;51.364;5.448;2023-07-16T07:02:04;19.10;97.90
8979;DHT22;4524;51.364;5.448;2023-07-16T07:04:32;19.10;97.80
8979;DHT22;4524;51.364;5.448;2023-07-16T07:07:02;19.20;97.70
8979;DHT22;4524;51.364;5.448;2023-07-16T07:09:30;19.10;97.90
8979;DHT22;4524;51.364;5.448;2023-07-16T07:11:58;19.20;97.80
8979;DHT22;4524;51.364;5.448;2023-07-16T07:14:46;19.20;97.80
8979;DHT22;4524;51.364;5.448;2023-07-16T07:17:15;19.20;97.90
8979;DHT22;4524;51.364;5.448;2023-07-16T07:19:43;19.30;97.90
8979;DHT22;4524;51.364;5.448;2023-07-16T07:22:12;19.30;98.00
8979;DHT22;4524;51.364;5.448;2023-07-16T07:24:40;19.30;97.90
8979;DHT22;4524;51.364;5.448;2023-07-16T07:27:08;19.30;97.70
8979;DHT22;4524;51.364;5.448;2023-07-16T07:29:36;19.30;97.60
8979;DHT22;4524;51.364;5.448;2023-07-16T07:32:23;19.30;97.70
8979;DHT22;4524;51.364;5.448;2023-07-16T07:34:51;19.30;97.70
8979;DHT22;4524;51.364;5.448;2023-07-16T07:37:20;19.30;97.40
8979;DHT22;4524;51.364;5.448;2023-07-16T07:39:52;19.40;97.50
8979;DHT22;4524;51.364;5.448;2023-07-16T07:42:20;19.40;97.40
8979;DHT22;4524;51.364;5.448;2023-07-16T07:44:51;19.40;97.50
8979;DHT22;4524;51.364;5.448;2023-07-16T07:47:19;19.60;97.50
8979;DHT22;4524;51.364;5.448;2023-07-16T07:49:47;19.70;97.60
8979;DHT22;4524;51.364;5.448;2023-07-16T07:52:15;19.80;97.40
8979;DHT22;4524;51.364;5.448;2023-07-16T07:54:45;19.90;97.20
8979;DHT22;4524;51.364;5.448;2023-07-16T07:57:13;20.20;97.00
8979;DHT22;4524;51.364;5.448;2023-07-16T07:59:44;20.20;96.80
8979;DHT22;4524;51.364;5.448;2023-07-16T08:02:12;20.30;96.80
8979;DHT22;4524;51.364;5.448;2023-07-16T08:04:40;20.30;96.80
8979;DHT22;4524;51.364;5.448;2023-07-16T08:07:08;20.40;96.90
8979;DHT22;4524;51.364;5.448;2023-07-16T08:09:37;20.30;96.50
8979;DHT22;4524;51.364;5.448;2023-07-16T08:12:26;20.40;96.60
8979;DHT22;4524;51.364;5.448;2023-07-16T08:15:14;20.30;96.40
8979;DHT22;4524;51.364;5.448;2023-07-16T08:17:42;20.40;96.50
8979;DHT22;4524;51.364;5.448;2023-07-16T08:20:11;20.40;96.50
8979;DHT22;4524;51.364;5.448;2023-07-16T08:22:40;20.60;96.20
8979;DHT22;4524;51.364;5.448;2023-07-16T08:25:09;20.60;95.90
8979;DHT22;4524;51.364;5.448;2023-07-16T08:27:38;20.60;95.80
8979;DHT22;4524;51.364;5.448;2023-07-16T08:30:07;20.80;95.90
8979;DHT22;4524;51.364;5.448;2023-07-16T08:32:35;20.80;95.60
8979;DHT22;4524;51.364;5.448;2023-07-16T08:35:04;20.80;98.70
8979;DHT22;4524;51.364;5.448;2023-07-16T08:37:32;21.00;95.90
8979;DHT22;4524;51.364;5.448;2023-07-16T08:40:00;21.10;95.50
8979;DHT22;4524;51.364;5.448;2023-07-16T08:42:30;21.20;95.40
8979;DHT22;4524;51.364;5.448;2023-07-16T08:45:00;21.20;95.10
8979;DHT22;4524;51.364;5.448;2023-07-16T08:47:28;21.30;95.00
8979;DHT22;4524;51.364;5.448;2023-07-16T08:49:56;21.40;94.90
8979;DHT22;4524;51.364;5.448;2023-07-16T08:52:27;21.50;97.70
8979;DHT22;4524;51.364;5.448;2023-07-16T08:54:55;21.70;94.50
8979;DHT22;4524;51.364;5.448;2023-07-16T08:57:23;21.40;94.50
8979;DHT22;4524;51.364;5.448;2023-07-16T08:59:51;21.60;94.40
8979;DHT22;4524;51.364;5.448;2023-07-16T09:02:21;21.60;94.20
8979;DHT22;4524;51.364;5.448;2023-07-16T09:04:50;21.60;94.00
8979;DHT22;4524;51.364;5.448;2023-07-16T09:07:19;21.80;94.30
8979;DHT22;4524;51.364;5.448;2023-07-16T09:09:55;21.80;94.10
8979;DHT22;4524;51.364;5.448;2023-07-16T09:12:25;21.90;93.90
8979;DHT22;4524;51.364;5.448;2023-07-16T09:14:54;21.80;94.00
8979;DHT22;4524;51.364;5.448;2023-07-16T09:17:24;21.90;93.70
8979;DHT22;4524;51.364;5.448;2023-07-16T09:19:53;21.80;93.80
8979;DHT22;4524;51.364;5.448;2023-07-16T09:22:22;21.90;93.70
8979;DHT22;4524;51.364;5.448;2023-07-16T09:24:50;22.00;96.20
8979;DHT22;4524;51.364;5.448;2023-07-16T09:27:18;22.00;93.40
8979;DHT22;4524;51.364;5.448;2023-07-16T09:29:46;21.90;93.40
8979;DHT22;4524;51.364;5.448;2023-07-16T09:32:17;22.00;93.30
8979;DHT22;4524;51.364;5.448;2023-07-16T09:34:50;22.20;93.00
8979;DHT22;4524;51.364;5.448;2023-07-16T09:37:18;22.50;92.90
8979;DHT22;4524;51.364;5.448;2023-07-16T09:39:47;22.90;92.30
8979;DHT22;4524;51.364;5.448;2023-07-16T09:42:16;23.00;92.00
8979;DHT22;4524;51.364;5.448;2023-07-16T09:44:47;23.10;91.80
8979;DHT22;4524;51.364;5.448;2023-07-16T09:47:16;22.90;91.70
8979;DHT22;4524;51.364;5.448;2023-07-16T09:50:06;22.80;91.60
8979;DHT22;4524;51.364;5.448;2023-07-16T09:52:34;22.80;91.60
8979;DHT22;4524;51.364;5.448;2023-07-16T09:55:03;23.00;91.80
8979;DHT22;4524;51.364;5.448;2023-07-16T09:57:35;23.20;92.10
8979;DHT22;4524;51.364;5.448;2023-07-16T10:00:06;23.30;91.90
8979;DHT22;4524;51.364;5.448;2023-07-16T10:02:38;23.20;92.00
8979;DHT22;4524;51.364;5.448;2023-07-16T10:05:15;23.20;91.30
8979;DHT22;4524;51.364;5.448;2023-07-16T10:07:49;23.10;91.70
8979;DHT22;4524;51.364;5.448;2023-07-16T10:10:18;23.00;92.60
8979;DHT22;4524;51.364;5.448;2023-07-16T10:12:56;23.10;91.10
8979;DHT22;4524;51.364;5.448;2023-07-16T10:15:26;23.30;91.20
8979;DHT22;4524;51.364;5.448;2023-07-16T10:17:55;23.20;91.20
8979;DHT22;4524;51.364;5.448;2023-07-16T10:20:32;23.00;91.30
8979;DHT22;4524;51.364;5.448;2023-07-16T10:23:10;22.80;91.00
8979;DHT22;4524;51.364;5.448;2023-07-16T10:25:40;22.70;91.80
8979;DHT22;4524;51.364;5.448;2023-07-16T10:28:08;22.60;91.40
8979;DHT22;4524;51.364;5.448;2023-07-16T10:30:36;22.70;92.10
8979;DHT22;4524;51.364;5.448;2023-07-16T10:33:11;22.70;91.90
8979;DHT22;4524;51.364;5.448;2023-07-16T10:35:42;22.80;90.90
8979;DHT22;4524;51.364;5.448;2023-07-16T10:38:10;23.00;91.50
8979;DHT22;4524;51.364;5.448;2023-07-16T10:40:44;22.80;90.50
8979;DHT22;4524;51.364;5.448;2023-07-16T10:43:12;22.60;90.50
8979;DHT22;4524;51.364;5.448;2023-07-16T10:45:41;22.40;91.40
8979;DHT22;4524;51.364;5.448;2023-07-16T10:48:09;22.40;91.90
8979;DHT22;4524;51.364;5.448;2023-07-16T10:50:37;22.40;91.60
8979;DHT22;4524;51.364;5.448;2023-07-16T10:53:06;22.50;91.30
8979;DHT22;4524;51.364;5.448;2023-07-16T10:55:34;22.70;91.60
8979;DHT22;4524;51.364;5.448;2023-07-16T10:58:05;22.80;90.60
8979;DHT22;4524;51.364;5.448;2023-07-16T11:00:38;22.60;90.80
8979;DHT22;4524;51.364;5.448;2023-07-16T11:03:06;22.50;90.90
8979;DHT22;4524;51.364;5.448;2023-07-16T11:05:35;22.60;91.10
8979;DHT22;4524;51.364;5.448;2023-07-16T11:08:03;22.70;90.80
8979;DHT22;4524;51.364;5.448;2023-07-16T11:10:33;22.70;91.20
8979;DHT22;4524;51.364;5.448;2023-07-16T11:13:01;22.70;91.30
8979;DHT22;4524;51.364;5.448;2023-07-16T11:15:32;22.50;91.30
8979;DHT22;4524;51.364;5.448;2023-07-16T11:18:01;22.50;91.00
8979;DHT22;4524;51.364;5.448;2023-07-16T11:20:30;22.40;93.80
8979;DHT22;4524;51.364;5.448;2023-07-16T11:22:58;22.30;91.30
8979;DHT22;4524;51.364;5.448;2023-07-16T11:25:28;22.30;91.60
8979;DHT22;4524;51.364;5.448;2023-07-16T11:27:57;22.20;90.90
8979;DHT22;4524;51.364;5.448;2023-07-16T11:30:26;22.10;91.30
8979;DHT22;4524;51.364;5.448;2023-07-16T11:32:58;22.10;91.50
8979;DHT22;4524;51.364;5.448;2023-07-16T11:35:26;22.10;94.10
8979;DHT22;4524;51.364;5.448;2023-07-16T11:37:54;22.30;91.00
8979;DHT22;4524;51.364;5.448;2023-07-16T11:40:22;22.50;91.00
8979;DHT22;4524;51.364;5.448;2023-07-16T11:42:50;22.80;91.20
8979;DHT22;4524;51.364;5.448;2023-07-16T11:45:20;22.80;90.70
8979;DHT22;4524;51.364;5.448;2023-07-16T11:47:49;22.70;90.60
8979;DHT22;4524;51.364;5.448;2023-07-16T11:50:18;22.70;90.90
8979;DHT22;4524;51.364;5.448;2023-07-16T11:52:52;22.30;90.30
8979;DHT22;4524;51.364;5.448;2023-07-16T11:55:21;22.50;90.50
8979;DHT22;4524;51.364;5.448;2023-07-16T11:57:49;22.60;90.50
8979;DHT22;4524;51.364;5.448;2023-07-16T12:00:17;22.60;90.30
8979;DHT22;4524;51.364;5.448;2023-07-16T12:02:47;22.80;90.20
8979;DHT22;4524;51.364;5.448;2023-07-16T12:05:19;22.40;90.20
8979;DHT22;4524;51.364;5.448;2023-07-16T12:07:59;22.60;90.30
8979;DHT22;4524;51.364;5.448;2023-07-16T12:10:27;22.70;90.20
8979;DHT22;4524;51.364;5.448;2023-07-16T12:12:55;22.60;90.10
8979;DHT22;4524;51.364;5.448;2023-07-16T12:15:23;22.70;89.90
8979;DHT22;4524;51.364;5.448;2023-07-16T12:17:53;22.80;90.00
8979;DHT22;4524;51.364;5.448;2023-07-16T12:20:21;22.90;90.00
8979;DHT22;4524;51.364;5.448;2023-07-16T12:22:49;22.90;89.80
8979;DHT22;4524;51.364;5.448;2023-07-16T12:25:18;22.70;89.50
8979;DHT22;4524;51.364;5.448;2023-07-16T12:27:47;22.80;89.70
8979;DHT22;4524;51.364;5.448;2023-07-16T12:30:18;22.80;89.50
8979;DHT22;4524;51.364;5.448;2023-07-16T12:32:46;22.40;89.30
8979;DHT22;4524;51.364;5.448;2023-07-16T12:35:16;22.40;89.80
8979;DHT22;4524;51.364;5.448;2023-07-16T12:37:44;22.50;89.50
8979;DHT22;4524;51.364;5.448;2023-07-16T12:40:12;22.20;90.20
8979;DHT22;4524;51.364;5.448;2023-07-16T12:42:40;22.50;90.00
8979;DHT22;4524;51.364;5.448;2023-07-16T12:45:08;22.60;90.00
8979;DHT22;4524;51.364;5.448;2023-07-16T12:47:37;22.80;89.80
8979;DHT22;4524;51.364;5.448;2023-07-16T12:50:06;22.70;92.40
8979;DHT22;4524;51.364;5.448;2023-07-16T12:52:36;22.60;89.60
8979;DHT22;4524;51.364;5.448;2023-07-16T12:55:04;22.70;89.80
8979;DHT22;4524;51.364;5.448;2023-07-16T12:57:32;22.80;90.00
8979;DHT22;4524;51.364;5.448;2023-07-16T13:00:00;23.10;89.40
8979;DHT22;4524;51.364;5.448;2023-07-16T13:02:32;23.10;89.40
8979;DHT22;4524;51.364;5.448;2023-07-16T13:05:19;22.90;89.70
8979;DHT22;4524;51.364;5.448;2023-07-16T13:07:48;23.00;88.90
8979;DHT22;4524;51.364;5.448;2023-07-16T13:10:16;22.90;88.80
8979;DHT22;4524;51.364;5.448;2023-07-16T13:12:50;22.80;89.60
8979;DHT22;4524;51.364;5.448;2023-07-16T13:15:18;22.80;89.10
8979;DHT22;4524;51.364;5.448;2023-07-16T13:17:46;23.10;89.00
8979;DHT22;4524;51.364;5.448;2023-07-16T13:20:15;23.20;88.60
8979;DHT22;4524;51.364;5.448;2023-07-16T13:22:43;23.20;89.30
8979;DHT22;4524;51.364;5.448;2023-07-16T13:25:13;23.00;89.30
8979;DHT22;4524;51.364;5.448;2023-07-16T13:27:41;23.10;89.50
8979;DHT22;4524;51.364;5.448;2023-07-16T13:30:10;23.40;89.60
8979;DHT22;4524;51.364;5.448;2023-07-16T13:32:38;23.30;89.10
8979;DHT22;4524;51.364;5.448;2023-07-16T13:35:07;23.40;88.90
8979;DHT22;4524;51.364;5.448;2023-07-16T13:37:35;23.40;88.40
8979;DHT22;4524;51.364;5.448;2023-07-16T13:40:04;23.20;88.10
8979;DHT22;4524;51.364;5.448;2023-07-16T13:42:33;23.30;88.60
8979;DHT22;4524;51.364;5.448;2023-07-16T13:45:01;23.50;87.90
8979;DHT22;4524;51.364;5.448;2023-07-16T13:47:30;23.50;87.90
8979;DHT22;4524;51.364;5.448;2023-07-16T13:50:18;23.50;87.60
8979;DHT22;4524;51.364;5.448;2023-07-16T13:52:46;23.60;87.50
8979;DHT22;4524;51.364;5.448;2023-07-16T13:55:14;23.70;87.40
8979;DHT22;4524;51.364;5.448;2023-07-16T13:57:45;23.70;88.00
8979;DHT22;4524;51.364;5.448;2023-07-16T14:00:13;23.80;86.80
8979;DHT22;4524;51.364;5.448;2023-07-16T14:02:43;23.70;86.40
8979;DHT22;4524;51.364;5.448;2023-07-16T14:05:12;23.60;86.50
8979;DHT22;4524;51.364;5.448;2023-07-16T14:07:40;23.70;90.90
8979;DHT22;4524;51.364;5.448;2023-07-16T14:10:09;23.60;85.50
8979;DHT22;4524;51.364;5.448;2023-07-16T14:12:37;23.60;86.00
8979;DHT22;4524;51.364;5.448;2023-07-16T14:15:07;23.80;85.80
8979;DHT22;4524;51.364;5.448;2023-07-16T14:17:35;23.60;85.70
8979;DHT22;4524;51.364;5.448;2023-07-16T14:20:04;23.60;86.00
8979;DHT22;4524;51.364;5.448;2023-07-16T14:22:33;23.50;85.80
8979;DHT22;4524;51.364;5.448;2023-07-16T14:25:01;23.40;84.90
8979;DHT22;4524;51.364;5.448;2023-07-16T14:27:29;23.40;85.10
8979;DHT22;4524;51.364;5.448;2023-07-16T14:29:58;23.10;85.90
8979;DHT22;4524;51.364;5.448;2023-07-16T14:32:36;23.30;85.80
8979;DHT22;4524;51.364;5.448;2023-07-16T14:35:05;23.10;86.20
8979;DHT22;4524;51.364;5.448;2023-07-16T14:37:51;23.40;85.90
8979;DHT22;4524;51.364;5.448;2023-07-16T14:40:19;23.60;85.40
8979;DHT22;4524;51.364;5.448;2023-07-16T14:42:48;23.70;85.60
8979;DHT22;4524;51.364;5.448;2023-07-16T14:45:16;23.70;85.30
8979;DHT22;4524;51.364;5.448;2023-07-16T14:47:46;23.50;85.50
8979;DHT22;4524;51.364;5.448;2023-07-16T14:50:14;23.40;85.50
8979;DHT22;4524;51.364;5.448;2023-07-16T14:52:42;23.50;85.60
8979;DHT22;4524;51.364;5.448;2023-07-16T14:55:10;23.60;85.50
8979;DHT22;4524;51.364;5.448;2023-07-16T14:57:38;23.50;85.60
8979;DHT22;4524;51.364;5.448;2023-07-16T15:00:08;23.80;85.70
8979;DHT22;4524;51.364;5.448;2023-07-16T15:02:38;23.80;85.10
8979;DHT22;4524;51.364;5.448;2023-07-16T15:05:09;23.40;85.10
8979;DHT22;4524;51.364;5.448;2023-07-16T15:07:37;23.60;84.70
8979;DHT22;4524;51.364;5.448;2023-07-16T15:10:06;23.60;85.10
8979;DHT22;4524;51.364;5.448;2023-07-16T15:12:35;23.60;85.10
8979;DHT22;4524;51.364;5.448;2023-07-16T15:15:03;23.60;90.40
8979;DHT22;4524;51.364;5.448;2023-07-16T15:17:32;23.50;85.10
8979;DHT22;4524;51.364;5.448;2023-07-16T15:20:00;23.30;84.90
8979;DHT22;4524;51.364;5.448;2023-07-16T15:22:29;23.40;85.20
8979;DHT22;4524;51.364;5.448;2023-07-16T15:25:00;23.30;85.00
8979;DHT22;4524;51.364;5.448;2023-07-16T15:27:28;23.30;86.30
8979;DHT22;4524;51.364;5.448;2023-07-16T15:29:56;23.10;86.40
8979;DHT22;4524;51.364;5.448;2023-07-16T15:32:24;23.00;86.70
8979;DHT22;4524;51.364;5.448;2023-07-16T15:34:52;23.00;86.70
8979;DHT22;4524;51.364;5.448;2023-07-16T15:37:20;23.00;86.90
8979;DHT22;4524;51.364;5.448;2023-07-16T15:39:49;22.80;86.90
8979;DHT22;4524;51.364;5.448;2023-07-16T15:42:18;22.90;87.20
8979;DHT22;4524;51.364;5.448;2023-07-16T15:44:46;22.90;87.40
8979;DHT22;4524;51.364;5.448;2023-07-16T15:47:15;23.00;91.60
8979;DHT22;4524;51.364;5.448;2023-07-16T15:49:43;23.00;86.80
8979;DHT22;4524;51.364;5.448;2023-07-16T15:52:11;23.20;87.40
8979;DHT22;4524;51.364;5.448;2023-07-16T15:54:39;23.10;86.10
8979;DHT22;4524;51.364;5.448;2023-07-16T15:57:09;23.10;86.50
8979;DHT22;4524;51.364;5.448;2023-07-16T15:59:37;23.20;86.30
8979;DHT22;4524;51.364;5.448;2023-07-16T16:02:05;23.10;86.20
8979;DHT22;4524;51.364;5.448;2023-07-16T16:04:33;23.20;85.70
8979;DHT22;4524;51.364;5.448;2023-07-16T16:07:02;23.00;86.20
8979;DHT22;4524;51.364;5.448;2023-07-16T16:09:30;23.20;86.10
8979;DHT22;4524;51.364;5.448;2023-07-16T16:11:58;23.20;85.30
8979;DHT22;4524;51.364;5.448;2023-07-16T16:14:31;23.20;85.50
8979;DHT22;4524;51.364;5.448;2023-07-16T16:17:18;23.20;84.90
8979;DHT22;4524;51.364;5.448;2023-07-16T16:19:46;23.10;85.00